Time,TemperatureF,DewpointF,PressureIn,WindDirection,WindDirectionDegrees,WindSpeedMPH,WindSpeedGustMPH,Humidity,HourlyPrecipIn,Conditions,Clouds,dailyrainin,SoftwareType,DateUTC
2013-04-24 00:01:00,47.7,43.7,30.10,WNW,288,4.0,7.0,86,0.00,,---,0.00,VWS V14.01,2013-04-24 04:01:00,
2013-04-24 00:07:00,47.7,44.0,30.10,WNW,302,8.0,11.0,87,0.00,,---,0.00,VWS V14.01,2013-04-24 04:07:00,
2013-04-24 00:12:00,47.7,44.0,30.10,West,274,10.0,12.0,87,0.00,,---,0.00,VWS V14.01,2013-04-24 04:12:00,
2013-04-24 00:17:00,47.6,43.9,30.10,WNW,285,9.0,12.0,87,0.00,,---,0.00,VWS V14.01,2013-04-24 04:17:00,
2013-04-24 00:22:00,47.6,43.9,30.10,NNW,328,6.0,12.0,87,0.00,,---,0.00,VWS V14.01,2013-04-24 04:22:00,
2013-04-24 00:27:00,47.5,43.8,30.10,WSW,242,7.0,12.0,87,0.00,,---,0.00,VWS V14.01,2013-04-24 04:27:00,
2013-04-24 00:32:00,47.5,43.8,30.10,NW,315,4.0,6.0,87,0.00,,---,0.00,VWS V14.01,2013-04-24 04:32:00,
2013-04-24 00:37:00,47.4,43.7,30.09,WSW,256,3.0,9.0,87,0.00,,---,0.00,VWS V14.01,2013-04-24 04:37:00,
2013-04-24 00:42:00,47.4,43.7,30.09,WNW,282,6.0,11.0,87,0.00,,---,0.00,VWS V14.01,2013-04-24 04:42:00,
2013-04-24 00:47:00,47.3,43.6,30.09,WNW,288,9.0,11.0,87,0.00,,---,0.00,VWS V14.01,2013-04-24 04:47:00,
2013-04-24 00:52:00,47.3,43.9,30.09,SW,221,8.0,11.0,88,0.00,,---,0.00,VWS V14.01,2013-04-24 04:52:00,
2013-04-24 00:57:00,47.2,43.8,30.09,West,274,5.0,11.0,88,0.00,,---,0.00,VWS V14.01,2013-04-24 04:57:00,
2013-04-24 01:02:00,47.2,43.8,30.09,WNW,291,8.0,9.0,88,0.00,,---,0.00,VWS V14.01,2013-04-24 05:02:00,
2013-04-24 01:07:00,47.3,43.9,30.09,West,272,11.0,12.0,88,0.00,,---,0.00,VWS V14.01,2013-04-24 05:07:00,
2013-04-24 01:12:00,47.3,43.9,30.09,West,281,11.0,12.0,88,0.00,,---,0.00,VWS V14.01,2013-04-24 05:12:00,
2013-04-24 01:17:00,47.3,43.6,30.09,West,274,9.0,12.0,87,0.00,,---,0.00,VWS V14.01,2013-04-24 05:17:00,
2013-04-24 01:22:00,47.4,43.7,30.09,West,271,6.0,12.0,87,0.00,,---,0.00,VWS V14.01,2013-04-24 05:22:00,
2013-04-24 01:27:00,47.4,43.7,30.08,WNW,300,3.0,12.0,87,0.00,,---,0.00,VWS V14.01,2013-04-24 05:27:00,
2013-04-24 01:32:00,47.3,43.6,30.08,WNW,292,1.0,9.0,87,0.00,,---,0.00,VWS V14.01,2013-04-24 05:32:00,
2013-04-24 01:37:00,47.3,43.3,30.08,West,268,7.0,9.0,86,0.00,,---,0.00,VWS V14.01,2013-04-24 05:37:00,
2013-04-24 01:42:00,47.3,43.3,30.08,WNW,283,5.0,10.0,86,0.00,,---,0.00,VWS V14.01,2013-04-24 05:42:00,
2013-04-24 01:47:00,47.3,43.6,30.08,West,281,5.0,10.0,87,0.00,,---,0.00,VWS V14.01,2013-04-24 05:47:00,
2013-04-24 01:52:00,47.2,43.5,30.08,NW,316,5.0,10.0,87,0.00,,---,0.00,VWS V14.01,2013-04-24 05:52:00,
2013-04-24 01:57:00,47.2,43.5,30.08,WNW,295,3.0,10.0,87,0.00,,---,0.00,VWS V14.01,2013-04-24 05:57:00,
2013-04-24 02:03:00,47.1,43.4,30.07,WNW,300,6.0,8.0,87,0.00,,---,0.00,VWS V14.01,2013-04-24 06:03:00,
2013-04-24 02:08:00,47.1,43.7,30.08,West,269,4.0,9.0,88,0.00,,---,0.00,VWS V14.01,2013-04-24 06:08:00,
2013-04-24 02:13:00,47.1,43.7,30.08,WNW,285,9.0,9.0,88,0.00,,---,0.00,VWS V14.01,2013-04-24 06:13:00,
2013-04-24 02:18:00,47.0,43.6,30.08,NW,319,5.0,9.0,88,0.00,,---,0.00,VWS V14.01,2013-04-24 06:18:00,
2013-04-24 02:23:00,46.9,43.5,30.07,West,262,5.0,10.0,88,0.00,,---,0.00,VWS V14.01,2013-04-24 06:23:00,
2013-04-24 02:28:00,46.9,43.5,30.07,West,269,5.0,10.0,88,0.00,,---,0.00,VWS V14.01,2013-04-24 06:28:00,
2013-04-24 02:33:00,46.7,43.6,30.07,West,279,2.0,6.0,89,0.00,,---,0.00,VWS V14.01,2013-04-24 06:33:00,
2013-04-24 02:38:00,46.6,43.5,30.07,WSW,255,5.0,9.0,89,0.00,,---,0.00,VWS V14.01,2013-04-24 06:38:00,
2013-04-24 02:43:00,46.6,43.5,30.07,West,267,3.0,9.0,89,0.00,,---,0.00,VWS V14.01,2013-04-24 06:43:00,
2013-04-24 02:48:00,46.6,43.5,30.07,NW,306,4.0,9.0,89,0.00,,---,0.00,VWS V14.01,2013-04-24 06:48:00,
2013-04-24 02:53:00,46.5,43.1,30.06,WNW,285,4.0,9.0,88,0.00,,---,0.00,VWS V14.01,2013-04-24 06:53:00,
2013-04-24 02:58:00,46.4,43.0,30.07,West,274,5.0,9.0,88,0.00,,---,0.00,VWS V14.01,2013-04-24 06:58:00,
2013-04-24 03:03:00,46.3,43.0,30.07,WNW,300,2.0,6.0,88,0.00,,---,0.00,VWS V14.01,2013-04-24 07:03:00,
2013-04-24 03:08:00,46.1,43.0,30.06,West,274,3.0,6.0,89,0.00,,---,0.00,VWS V14.01,2013-04-24 07:08:00,
2013-04-24 03:13:00,46.0,43.0,30.06,West,262,4.0,6.0,89,0.00,,---,0.00,VWS V14.01,2013-04-24 07:13:00,
2013-04-24 03:18:00,45.9,42.8,30.06,WNW,286,4.0,6.0,89,0.00,,---,0.00,VWS V14.01,2013-04-24 07:18:00,
2013-04-24 03:23:00,45.8,42.8,30.06,WNW,283,3.0,6.0,89,0.00,,---,0.00,VWS V14.01,2013-04-24 07:23:00,
2013-04-24 03:28:00,45.6,42.5,30.07,WSW,248,2.0,6.0,89,0.00,,---,0.00,VWS V14.01,2013-04-24 07:28:00,
2013-04-24 03:34:00,45.6,42.5,30.06,West,265,4.0,5.0,89,0.00,,---,0.00,VWS V14.01,2013-04-24 07:34:00,
2013-04-24 03:39:00,45.6,42.8,30.06,WNW,287,3.0,6.0,90,0.00,,---,0.00,VWS V14.01,2013-04-24 07:39:00,
2013-04-24 03:44:00,45.5,42.7,30.06,WNW,290,2.0,6.0,90,0.00,,---,0.00,VWS V14.01,2013-04-24 07:44:00,
2013-04-24 03:49:00,45.4,42.9,30.07,West,269,3.0,6.0,91,0.00,,---,0.00,VWS V14.01,2013-04-24 07:49:00,
2013-04-24 03:54:00,45.4,42.9,30.06,WNW,298,4.0,6.0,91,0.00,,---,0.00,VWS V14.01,2013-04-24 07:54:00,
2013-04-24 03:59:00,45.4,42.9,30.06,West,259,3.0,6.0,91,0.00,,---,0.00,VWS V14.01,2013-04-24 07:59:00,
2013-04-24 04:04:00,45.2,42.7,30.07,West,259,4.0,6.0,91,0.00,,---,0.00,VWS V14.01,2013-04-24 08:04:00,
2013-04-24 04:09:00,45.0,42.5,30.07,West,269,3.0,6.0,91,0.00,,---,0.00,VWS V14.01,2013-04-24 08:09:00,
2013-04-24 04:14:00,44.8,42.3,30.07,West,281,3.0,6.0,91,0.00,,---,0.00,VWS V14.01,2013-04-24 08:14:00,
2013-04-24 04:19:00,44.7,42.2,30.07,West,280,4.0,6.0,91,0.00,,---,0.00,VWS V14.01,2013-04-24 08:19:00,
2013-04-24 04:24:00,44.5,42.0,30.07,West,271,3.0,7.0,91,0.00,,---,0.00,VWS V14.01,2013-04-24 08:24:00,
2013-04-24 04:29:00,44.4,42.2,30.07,West,268,4.0,7.0,92,0.00,,---,0.00,VWS V14.01,2013-04-24 08:29:00,
2013-04-24 04:34:00,44.3,42.1,30.07,West,261,4.0,7.0,92,0.00,,---,0.00,VWS V14.01,2013-04-24 08:34:00,
2013-04-24 04:39:00,44.2,42.0,30.07,WSW,246,4.0,7.0,92,0.00,,---,0.00,VWS V14.01,2013-04-24 08:39:00,
2013-04-24 04:44:00,44.2,42.3,30.07,West,273,3.0,7.0,93,0.00,,---,0.00,VWS V14.01,2013-04-24 08:44:00,
2013-04-24 04:49:00,44.3,42.4,30.07,West,262,3.0,7.0,93,0.00,,---,0.00,VWS V14.01,2013-04-24 08:49:00,
2013-04-24 04:54:00,44.3,42.4,30.07,West,268,3.0,7.0,93,0.00,,---,0.00,VWS V14.01,2013-04-24 08:54:00,
2013-04-24 04:59:00,44.3,42.4,30.07,West,277,3.0,7.0,93,0.00,,---,0.00,VWS V14.01,2013-04-24 08:59:00,
2013-04-24 05:04:00,44.2,42.3,30.07,West,281,3.0,4.0,93,0.00,,---,0.00,VWS V14.01,2013-04-24 09:04:00,
2013-04-24 05:09:00,44.0,42.1,30.07,West,277,3.0,5.0,93,0.00,,---,0.00,VWS V14.01,2013-04-24 09:09:00,
2013-04-24 05:14:00,43.9,42.0,30.07,West,281,5.0,6.0,93,0.00,,---,0.00,VWS V14.01,2013-04-24 09:14:00,
2013-04-24 05:19:00,43.8,41.9,30.07,West,267,4.0,8.0,93,0.00,,---,0.00,VWS V14.01,2013-04-24 09:19:00,
2013-04-24 05:24:00,43.7,41.8,30.07,West,263,4.0,8.0,93,0.00,,---,0.00,VWS V14.01,2013-04-24 09:24:00,
2013-04-24 05:29:00,43.6,41.7,30.08,West,264,5.0,8.0,93,0.00,,---,0.00,VWS V14.01,2013-04-24 09:29:00,
2013-04-24 05:34:00,43.5,41.9,30.08,West,276,4.0,6.0,94,0.00,,---,0.00,VWS V14.01,2013-04-24 09:34:00,
2013-04-24 05:39:00,43.7,42.1,30.08,WSW,255,5.0,8.0,94,0.00,,---,0.00,VWS V14.01,2013-04-24 09:39:00,
2013-04-24 05:44:00,43.7,42.1,30.08,SW,236,9.0,9.0,94,0.00,,---,0.00,VWS V14.01,2013-04-24 09:44:00,
2013-04-24 05:51:00,43.8,42.2,30.08,WSW,247,6.0,9.0,94,0.00,,---,0.00,VWS V14.01,2013-04-24 09:51:00,
2013-04-24 05:56:00,43.9,42.3,30.08,West,269,5.0,9.0,94,0.00,,---,0.00,VWS V14.01,2013-04-24 09:56:00,
2013-04-24 06:01:00,43.8,42.2,30.08,West,269,4.0,4.0,94,0.00,,---,0.00,VWS V14.01,2013-04-24 10:01:00,
2013-04-24 06:06:00,43.7,42.1,30.09,West,276,3.0,4.0,94,0.00,,---,0.00,VWS V14.01,2013-04-24 10:06:00,
2013-04-24 06:11:00,43.7,42.1,30.09,West,259,3.0,4.0,94,0.00,,---,0.00,VWS V14.01,2013-04-24 10:11:00,
2013-04-24 06:16:00,43.7,42.1,30.09,West,261,4.0,4.0,94,0.00,,---,0.00,VWS V14.01,2013-04-24 10:16:00,
2013-04-24 06:21:00,43.7,42.1,30.09,West,259,5.0,5.0,94,0.00,,---,0.00,VWS V14.01,2013-04-24 10:21:00,
2013-04-24 06:26:00,43.7,42.1,30.09,West,276,3.0,5.0,94,0.00,,---,0.00,VWS V14.01,2013-04-24 10:26:00,
2013-04-24 06:31:00,43.8,42.2,30.08,West,275,2.0,2.0,94,0.00,,---,0.00,VWS V14.01,2013-04-24 10:31:00,
2013-04-24 06:36:00,44.0,42.4,30.08,West,263,1.0,2.0,94,0.00,,---,0.00,VWS V14.01,2013-04-24 10:36:00,
2013-04-24 06:41:00,44.1,42.5,30.08,West,259,0.0,2.0,94,0.00,,---,0.00,VWS V14.01,2013-04-24 10:41:00,
2013-04-24 06:46:00,44.3,42.4,30.09,WSW,252,2.0,2.0,93,0.00,,---,0.00,VWS V14.01,2013-04-24 10:46:00,
2013-04-24 06:51:00,44.5,42.6,30.09,West,276,3.0,3.0,93,0.00,,---,0.00,VWS V14.01,2013-04-24 10:51:00,
2013-04-24 06:56:00,44.6,42.7,30.09,WSW,252,1.0,4.0,93,0.00,,---,0.00,VWS V14.01,2013-04-24 10:56:00,
2013-04-24 07:02:00,44.8,42.6,30.09,SW,231,1.0,3.0,92,0.00,,---,0.00,VWS V14.01,2013-04-24 11:02:00,
2013-04-24 07:07:00,45.1,42.9,30.09,WSW,245,1.0,3.0,92,0.00,,---,0.00,VWS V14.01,2013-04-24 11:07:00,
2013-04-24 07:12:00,45.4,42.9,30.09,WSW,243,2.0,3.0,91,0.00,,---,0.00,VWS V14.01,2013-04-24 11:12:00,
2013-04-24 07:17:00,45.5,42.7,30.09,SW,223,3.0,6.0,90,0.00,,---,0.00,VWS V14.01,2013-04-24 11:17:00,
2013-04-24 07:22:00,45.7,42.9,30.09,WSW,246,2.0,6.0,90,0.00,,---,0.00,VWS V14.01,2013-04-24 11:22:00,
2013-04-24 07:27:00,45.8,42.8,30.09,West,278,2.0,6.0,89,0.00,,---,0.00,VWS V14.01,2013-04-24 11:27:00,
2013-04-24 07:32:00,45.9,42.8,30.09,West,271,2.0,4.0,89,0.00,,---,0.00,VWS V14.01,2013-04-24 11:32:00,
2013-04-24 07:37:00,46.1,43.3,30.09,WSW,239,2.0,4.0,90,0.00,,---,0.00,VWS V14.01,2013-04-24 11:37:00,
2013-04-24 07:42:00,46.3,43.2,30.09,WSW,243,5.0,6.0,89,0.00,,---,0.00,VWS V14.01,2013-04-24 11:42:00,
2013-04-24 07:47:00,46.7,43.6,30.09,SW,217,4.0,6.0,89,0.00,,---,0.00,VWS V14.01,2013-04-24 11:47:00,
2013-04-24 07:52:00,47.2,43.8,30.09,West,278,4.0,7.0,88,0.00,,---,0.00,VWS V14.01,2013-04-24 11:52:00,
2013-04-24 07:57:00,47.4,43.7,30.09,SSW,196,3.0,7.0,87,0.00,,---,0.00,VWS V14.01,2013-04-24 11:57:00,
2013-04-24 08:02:00,47.7,44.3,30.09,SW,226,0.0,5.0,88,0.00,,---,0.00,VWS V14.01,2013-04-24 12:02:00,
2013-04-24 08:07:00,48.6,44.9,30.09,SSW,205,2.0,6.0,87,0.00,,---,0.00,VWS V14.01,2013-04-24 12:07:00,
2013-04-24 08:12:00,49.5,45.5,30.09,SW,230,6.0,7.0,86,0.00,,---,0.00,VWS V14.01,2013-04-24 12:12:00,
2013-04-24 08:17:00,49.9,46.2,30.09,SW,231,8.0,12.0,87,0.00,,---,0.00,VWS V14.01,2013-04-24 12:17:00,
2013-04-24 08:22:00,50.4,46.7,30.09,SSW,205,7.0,12.0,87,0.00,,---,0.00,VWS V14.01,2013-04-24 12:22:00,
2013-04-24 08:27:00,50.4,46.4,30.09,SSE,160,5.0,14.0,86,0.00,,---,0.00,VWS V14.01,2013-04-24 12:27:00,
2013-04-24 08:33:00,50.6,46.6,30.09,SW,227,6.0,12.0,86,0.00,,---,0.00,VWS V14.01,2013-04-24 12:33:00,
2013-04-24 08:38:00,50.9,46.9,30.08,WSW,237,6.0,13.0,86,0.00,,---,0.00,VWS V14.01,2013-04-24 12:38:00,
2013-04-24 08:43:00,51.4,47.0,30.08,SSE,154,3.0,13.0,85,0.00,,---,0.00,VWS V14.01,2013-04-24 12:43:00,
2013-04-24 08:48:00,51.8,47.4,30.08,WSW,243,7.0,13.0,85,0.00,,---,0.00,VWS V14.01,2013-04-24 12:48:00,
2013-04-24 08:53:00,52.6,47.6,30.08,SE,143,3.0,13.0,83,0.00,,---,0.00,VWS V14.01,2013-04-24 12:53:00,
2013-04-24 08:58:00,53.2,47.5,30.08,South,188,9.0,13.0,81,0.00,,---,0.00,VWS V14.01,2013-04-24 12:58:00,
2013-04-24 09:03:00,53.5,47.5,30.08,SSW,202,5.0,11.0,80,0.00,,---,0.00,VWS V14.01,2013-04-24 13:03:00,
2013-04-24 09:08:00,54.1,48.1,30.08,SSW,198,4.0,11.0,80,0.00,,---,0.00,VWS V14.01,2013-04-24 13:08:00,
2013-04-24 09:13:00,54.3,48.3,30.08,SSE,167,4.0,11.0,80,0.00,,---,0.00,VWS V14.01,2013-04-24 13:13:00,
2013-04-24 09:18:00,54.0,48.0,30.08,ENE,71,2.0,11.0,80,0.00,,---,0.00,VWS V14.01,2013-04-24 13:18:00,
2013-04-24 09:23:00,53.7,48.3,30.08,NW,323,2.0,11.0,82,0.00,,---,0.00,VWS V14.01,2013-04-24 13:23:00,
2013-04-24 09:28:00,53.9,48.2,30.08,NNE,32,3.0,11.0,81,0.00,,---,0.00,VWS V14.01,2013-04-24 13:28:00,
2013-04-24 09:33:00,54.2,48.8,30.08,WSW,237,3.0,7.0,82,0.00,,---,0.00,VWS V14.01,2013-04-24 13:33:00,
2013-04-24 09:38:00,54.1,48.4,30.08,South,176,3.0,7.0,81,0.00,,---,0.00,VWS V14.01,2013-04-24 13:38:00,
2013-04-24 09:43:00,54.0,48.3,30.08,WSW,239,2.0,8.0,81,0.00,,---,0.00,VWS V14.01,2013-04-24 13:43:00,
2013-04-24 09:48:00,54.4,49.0,30.08,ENE,73,4.0,8.0,82,0.00,,---,0.00,VWS V14.01,2013-04-24 13:48:00,
2013-04-24 09:53:00,54.3,48.9,30.08,SSE,163,5.0,9.0,82,0.00,,---,0.00,VWS V14.01,2013-04-24 13:53:00,
2013-04-24 09:58:00,54.0,48.6,30.08,West,276,3.0,11.0,82,0.00,,---,0.00,VWS V14.01,2013-04-24 13:58:00,
2013-04-24 10:03:00,53.9,48.5,30.07,SE,125,6.0,10.0,82,0.00,,---,0.00,VWS V14.01,2013-04-24 14:03:00,
2013-04-24 10:08:00,53.6,48.6,30.07,WSW,252,7.0,12.0,83,0.00,,---,0.00,VWS V14.01,2013-04-24 14:08:00,
2013-04-24 10:14:00,53.5,48.5,30.07,NE,44,8.0,12.0,83,0.00,,---,0.00,VWS V14.01,2013-04-24 14:14:00,
2013-04-24 10:19:00,53.4,48.4,30.07,SSW,209,7.0,12.0,83,0.00,,---,0.00,VWS V14.01,2013-04-24 14:19:00,
2013-04-24 10:24:00,53.3,48.3,30.07,WNW,282,6.0,12.0,83,0.00,,---,0.00,VWS V14.01,2013-04-24 14:24:00,
2013-04-24 10:29:00,53.2,48.2,30.07,SE,146,6.0,13.0,83,0.00,,---,0.00,VWS V14.01,2013-04-24 14:29:00,
2013-04-24 10:34:00,53.1,48.4,30.07,SW,224,12.0,13.0,84,0.00,,---,0.00,VWS V14.01,2013-04-24 14:34:00,
2013-04-24 10:39:00,53.3,48.6,30.06,NW,308,8.0,13.0,84,0.00,,---,0.00,VWS V14.01,2013-04-24 14:39:00,
2013-04-24 10:44:00,53.4,48.4,30.06,WSW,242,8.0,14.0,83,0.00,,---,0.00,VWS V14.01,2013-04-24 14:44:00,
2013-04-24 10:49:00,53.4,48.7,30.06,SW,217,13.0,15.0,84,0.00,,---,0.00,VWS V14.01,2013-04-24 14:49:00,
2013-04-24 10:54:00,53.3,48.6,30.06,South,172,11.0,15.0,84,0.00,,---,0.00,VWS V14.01,2013-04-24 14:54:00,
2013-04-24 10:59:00,53.2,48.2,30.06,WNW,302,6.0,15.0,83,0.00,,---,0.00,VWS V14.01,2013-04-24 14:59:00,
2013-04-24 11:04:00,53.0,48.3,30.06,NNE,15,10.0,16.0,84,0.00,,---,0.00,VWS V14.01,2013-04-24 15:04:00,
2013-04-24 11:09:00,52.5,48.1,30.06,West,279,10.0,16.0,85,0.00,,---,0.00,VWS V14.01,2013-04-24 15:09:00,
2013-04-24 11:14:00,52.4,48.3,30.06,West,261,11.0,16.0,86,0.00,,---,0.00,VWS V14.01,2013-04-24 15:14:00,
2013-04-24 11:19:00,52.3,48.2,30.06,NNW,346,7.0,16.0,86,0.00,,---,0.00,VWS V14.01,2013-04-24 15:19:00,
2013-04-24 11:24:00,52.2,48.2,30.06,South,175,6.0,16.0,86,0.00,,---,0.00,VWS V14.01,2013-04-24 15:24:00,
2013-04-24 11:29:00,52.0,48.0,30.05,SW,223,10.0,16.0,86,0.00,,---,0.00,VWS V14.01,2013-04-24 15:29:00,
2013-04-24 11:34:00,52.1,48.4,30.05,South,178,11.0,14.0,87,0.00,,---,0.00,VWS V14.01,2013-04-24 15:34:00,
2013-04-24 11:39:00,52.0,48.3,30.05,SW,215,9.0,14.0,87,0.00,,---,0.00,VWS V14.01,2013-04-24 15:39:00,
2013-04-24 11:44:00,51.8,48.4,30.05,WSW,243,6.0,16.0,88,0.00,,---,0.00,VWS V14.01,2013-04-24 15:44:00,
2013-04-24 11:49:00,51.5,48.1,30.05,NNE,18,9.0,16.0,88,0.00,,---,0.00,VWS V14.01,2013-04-24 15:49:00,
2013-04-24 11:54:00,51.3,47.9,30.04,North,358,6.0,17.0,88,0.00,,---,0.00,VWS V14.01,2013-04-24 15:54:00,
2013-04-24 11:59:00,51.2,47.8,30.04,SSE,158,12.0,17.0,88,0.00,,---,0.00,VWS V14.01,2013-04-24 15:59:00,
2013-04-24 12:04:00,51.2,48.1,30.04,West,268,12.0,15.0,89,0.00,,---,0.00,VWS V14.01,2013-04-24 16:04:00,
2013-04-24 12:09:00,51.2,48.1,30.04,East,91,14.0,23.0,89,0.00,,---,0.00,VWS V14.01,2013-04-24 16:09:00,
2013-04-24 12:14:00,51.5,48.1,30.03,NNW,343,7.0,23.0,88,0.00,,---,0.00,VWS V14.01,2013-04-24 16:14:00,
2013-04-24 12:19:00,51.7,48.6,30.03,SSW,203,9.0,23.0,89,0.00,,---,0.00,VWS V14.01,2013-04-24 16:19:00,
2013-04-24 12:24:00,51.8,48.4,30.03,SSW,210,6.0,23.0,88,0.00,,---,0.00,VWS V14.01,2013-04-24 16:24:00,
2013-04-24 12:29:00,52.2,48.8,30.03,WNW,296,11.0,23.0,88,0.00,,---,0.00,VWS V14.01,2013-04-24 16:29:00,
2013-04-24 12:34:00,52.0,48.6,30.03,ESE,122,12.0,17.0,88,0.00,,---,0.00,VWS V14.01,2013-04-24 16:34:00,
2013-04-24 12:39:00,52.0,48.6,30.02,South,188,18.0,19.0,88,0.00,,---,0.00,VWS V14.01,2013-04-24 16:39:00,
2013-04-24 12:44:00,52.1,48.7,30.02,SW,220,8.0,20.0,88,0.00,,---,0.00,VWS V14.01,2013-04-24 16:44:00,
2013-04-24 12:49:00,52.1,48.7,30.02,SW,216,8.0,20.0,88,0.00,,---,0.00,VWS V14.01,2013-04-24 16:49:00,
2013-04-24 12:54:00,52.1,48.7,30.02,South,176,14.0,20.0,88,0.00,,---,0.00,VWS V14.01,2013-04-24 16:54:00,
2013-04-24 12:59:00,52.1,48.7,30.02,SSE,165,4.0,20.0,88,0.00,,---,0.00,VWS V14.01,2013-04-24 16:59:00,
2013-04-24 13:04:00,52.0,48.6,30.02,South,170,12.0,18.0,88,0.00,,---,0.00,VWS V14.01,2013-04-24 17:04:00,
2013-04-24 13:09:00,52.0,48.6,30.01,SSE,153,6.0,19.0,88,0.00,,---,0.00,VWS V14.01,2013-04-24 17:09:00,
2013-04-24 13:14:00,52.0,48.9,30.01,NNW,345,10.0,19.0,89,0.00,,---,0.00,VWS V14.01,2013-04-24 17:14:00,
2013-04-24 13:19:00,51.9,48.5,30.00,West,259,10.0,19.0,88,0.00,,---,0.00,VWS V14.01,2013-04-24 17:19:00,
2013-04-24 13:24:00,51.7,48.6,30.00,SSW,197,11.0,19.0,89,0.00,,---,0.00,VWS V14.01,2013-04-24 17:24:00,
2013-04-24 13:29:00,51.7,48.6,30.00,SSW,199,6.0,19.0,89,0.00,,---,0.00,VWS V14.01,2013-04-24 17:29:00,
2013-04-24 13:35:00,51.7,48.6,30.00,SW,226,16.0,17.0,89,0.00,,---,0.00,VWS V14.01,2013-04-24 17:35:00,
2013-04-24 13:39:00,51.8,49.0,30.00,South,171,9.0,21.0,90,0.00,,---,0.00,VWS V14.01,2013-04-24 17:39:00,
2013-04-24 13:44:00,51.6,48.5,30.00,WSW,242,12.0,21.0,89,0.00,,---,0.00,VWS V14.01,2013-04-24 17:44:00,
2013-04-24 13:50:00,51.5,48.4,30.00,NNE,32,10.0,21.0,89,0.00,,---,0.00,VWS V14.01,2013-04-24 17:50:00,
2013-04-24 13:55:00,51.4,48.6,30.00,North,6,13.0,21.0,90,0.00,,---,0.00,VWS V14.01,2013-04-24 17:55:00,
2013-04-24 14:00:00,51.5,48.7,29.99,South,169,12.0,21.0,90,0.00,,---,0.00,VWS V14.01,2013-04-24 18:00:00,
2013-04-24 14:05:00,51.6,48.8,29.99,SSE,155,16.0,18.0,90,0.00,,---,0.00,VWS V14.01,2013-04-24 18:05:00,
2013-04-24 14:10:00,51.4,48.6,29.99,SW,231,16.0,18.0,90,0.00,,---,0.00,VWS V14.01,2013-04-24 18:10:00,
2013-04-24 14:15:00,51.4,48.6,29.99,SSW,205,7.0,19.0,90,0.00,,---,0.00,VWS V14.01,2013-04-24 18:15:00,
2013-04-24 14:20:00,51.6,49.1,29.98,SSW,204,11.0,19.0,91,0.00,,---,0.00,VWS V14.01,2013-04-24 18:20:00,
2013-04-24 14:25:00,51.6,48.8,29.98,WSW,256,14.0,19.0,90,0.00,,---,0.00,VWS V14.01,2013-04-24 18:25:00,
2013-04-24 14:30:00,51.5,48.7,29.97,SW,215,11.0,16.0,90,0.00,,---,0.00,VWS V14.01,2013-04-24 18:30:00,
2013-04-24 14:36:00,51.4,48.3,29.97,SW,231,8.0,19.0,89,0.00,,---,0.00,VWS V14.01,2013-04-24 18:36:00,
2013-04-24 14:41:00,51.3,48.5,29.96,SW,226,15.0,19.0,90,0.00,,---,0.00,VWS V14.01,2013-04-24 18:41:00,
2013-04-24 14:46:00,51.2,48.7,29.96,SW,214,14.0,19.0,91,0.00,,---,0.00,VWS V14.01,2013-04-24 18:46:00,
2013-04-24 14:51:00,51.1,48.3,29.96,NNE,33,11.0,19.0,90,0.00,,---,0.00,VWS V14.01,2013-04-24 18:51:00,
2013-04-24 14:56:00,50.9,48.4,29.96,SW,221,12.0,19.0,91,0.00,,---,0.00,VWS V14.01,2013-04-24 18:56:00,
2013-04-24 15:01:00,50.7,48.2,29.95,WNW,283,11.0,16.0,91,0.00,,---,0.00,VWS V14.01,2013-04-24 19:01:00,
2013-04-24 15:06:00,50.5,48.3,29.96,SSW,196,9.0,19.0,92,0.00,,---,0.00,VWS V14.01,2013-04-24 19:06:00,
2013-04-24 15:11:00,50.4,48.2,29.95,SE,124,11.0,19.0,92,0.00,,---,0.00,VWS V14.01,2013-04-24 19:11:00,
2013-04-24 15:16:00,50.4,48.2,29.95,SSW,206,14.0,19.0,92,0.00,,---,0.00,VWS V14.01,2013-04-24 19:16:00,
2013-04-24 15:21:00,50.3,48.1,29.95,SSE,153,15.0,19.0,92,0.00,,---,0.00,VWS V14.01,2013-04-24 19:21:00,
2013-04-24 15:26:00,50.1,48.2,29.95,SW,233,13.0,19.0,93,0.00,,---,0.00,VWS V14.01,2013-04-24 19:26:00,
2013-04-24 15:31:00,50.1,48.2,29.95,SSE,160,9.0,12.0,93,0.00,,---,0.00,VWS V14.01,2013-04-24 19:31:00,
2013-04-24 15:36:00,49.9,48.0,29.95,SSW,193,12.0,20.0,93,0.00,,---,0.00,VWS V14.01,2013-04-24 19:36:00,
2013-04-24 15:41:00,49.8,47.9,29.96,West,269,10.0,20.0,93,0.00,,---,0.00,VWS V14.01,2013-04-24 19:41:00,
2013-04-24 15:46:00,49.7,47.8,29.95,West,281,8.0,20.0,93,0.00,,---,0.00,VWS V14.01,2013-04-24 19:46:00,
2013-04-24 15:51:00,49.6,48.0,29.95,SSW,207,15.0,20.0,94,0.00,,---,0.00,VWS V14.01,2013-04-24 19:51:00,
2013-04-24 15:56:00,49.6,48.0,29.95,WSW,253,11.0,20.0,94,0.00,,---,0.00,VWS V14.01,2013-04-24 19:56:00,
2013-04-24 16:01:00,49.5,47.8,29.94,SSW,195,11.0,13.0,94,0.00,,---,0.00,VWS V14.01,2013-04-24 20:01:00,
2013-04-24 16:06:00,49.5,47.8,29.94,SW,226,12.0,18.0,94,0.00,,---,0.00,VWS V14.01,2013-04-24 20:06:00,
2013-04-24 16:11:00,49.5,47.8,29.94,SSW,205,7.0,19.0,94,0.00,,---,0.00,VWS V14.01,2013-04-24 20:11:00,
2013-04-24 16:16:00,49.5,47.8,29.94,ENE,75,7.0,19.0,94,0.00,,---,0.00,VWS V14.01,2013-04-24 20:16:00,
2013-04-24 16:21:00,49.4,47.8,29.94,SE,145,11.0,19.0,94,0.00,,---,0.00,VWS V14.01,2013-04-24 20:21:00,
2013-04-24 16:26:00,49.4,48.0,29.95,North,10,7.0,19.0,95,0.00,,---,0.00,VWS V14.01,2013-04-24 20:26:00,
2013-04-24 16:31:00,49.3,47.9,29.94,South,184,11.0,16.0,95,0.00,,---,0.00,VWS V14.01,2013-04-24 20:31:00,
2013-04-24 16:36:00,49.4,48.0,29.94,SSW,198,8.0,19.0,95,0.00,,---,0.00,VWS V14.01,2013-04-24 20:36:00,
2013-04-24 16:41:00,49.4,48.0,29.94,SW,220,7.0,19.0,95,0.00,,---,0.00,VWS V14.01,2013-04-24 20:41:00,
2013-04-24 16:46:00,49.4,48.0,29.94,SSW,200,4.0,19.0,95,0.00,,---,0.00,VWS V14.01,2013-04-24 20:46:00,
2013-04-24 16:51:00,49.4,48.0,29.93,NW,323,9.0,19.0,95,0.00,,---,0.00,VWS V14.01,2013-04-24 20:51:00,
2013-04-24 16:56:00,49.4,48.0,29.93,SSE,151,9.0,19.0,95,0.00,,---,0.00,VWS V14.01,2013-04-24 20:56:00,
2013-04-24 17:01:00,49.5,48.1,29.93,SSW,195,9.0,13.0,95,0.00,,---,0.00,VWS V14.01,2013-04-24 21:01:00,
2013-04-24 17:06:00,49.5,48.1,29.93,West,281,12.0,17.0,95,0.00,,---,0.00,VWS V14.01,2013-04-24 21:06:00,
2013-04-24 17:11:00,49.3,47.9,29.92,South,186,7.0,20.0,95,0.00,,---,0.00,VWS V14.01,2013-04-24 21:11:00,
2013-04-24 17:16:00,49.3,48.2,29.92,WSW,243,10.0,20.0,96,0.00,,---,0.00,VWS V14.01,2013-04-24 21:16:00,
2013-04-24 17:21:00,49.4,48.3,29.92,SW,221,10.0,20.0,96,0.00,,---,0.00,VWS V14.01,2013-04-24 21:21:00,
2013-04-24 17:26:00,49.3,48.2,29.92,West,278,9.0,20.0,96,0.00,,---,0.00,VWS V14.01,2013-04-24 21:26:00,
2013-04-24 17:31:00,49.3,48.2,29.91,West,277,9.0,14.0,96,0.00,,---,0.00,VWS V14.01,2013-04-24 21:31:00,
2013-04-24 17:36:00,49.3,48.2,29.91,West,268,7.0,15.0,96,0.00,,---,0.00,VWS V14.01,2013-04-24 21:36:00,
2013-04-24 17:41:00,49.3,48.2,29.91,NW,319,9.0,17.0,96,0.00,,---,0.00,VWS V14.01,2013-04-24 21:41:00,
2013-04-24 17:47:00,49.3,48.2,29.91,South,184,9.0,17.0,96,0.00,,---,0.00,VWS V14.01,2013-04-24 21:47:00,
2013-04-24 17:52:00,49.3,48.2,29.91,NE,49,8.0,19.0,96,0.00,,---,0.00,VWS V14.01,2013-04-24 21:52:00,
2013-04-24 17:57:00,49.3,48.2,29.91,SW,236,5.0,19.0,96,0.00,,---,0.00,VWS V14.01,2013-04-24 21:57:00,
2013-04-24 18:02:00,49.2,48.1,29.91,SSW,210,11.0,16.0,96,0.00,,---,0.00,VWS V14.01,2013-04-24 22:02:00,
2013-04-24 18:07:00,49.2,48.1,29.90,ENE,66,9.0,16.0,96,0.00,,---,0.00,VWS V14.01,2013-04-24 22:07:00,
2013-04-24 18:12:00,49.2,48.1,29.90,SE,127,11.0,16.0,96,0.00,,---,0.00,VWS V14.01,2013-04-24 22:12:00,
2013-04-24 18:17:00,49.2,48.4,29.90,ESE,121,11.0,22.0,97,0.00,,---,0.00,VWS V14.01,2013-04-24 22:17:00,
2013-04-24 18:22:00,49.2,48.4,29.90,SSW,195,10.0,22.0,97,0.00,,---,0.00,VWS V14.01,2013-04-24 22:22:00,
2013-04-24 18:27:00,49.2,48.4,29.89,SSW,213,6.0,22.0,97,0.00,,---,0.00,VWS V14.01,2013-04-24 22:27:00,
2013-04-24 18:33:00,49.2,48.4,29.89,SW,224,16.0,20.0,97,0.00,,---,0.00,VWS V14.01,2013-04-24 22:33:00,
2013-04-24 18:38:00,49.2,48.4,29.89,SW,216,17.0,23.0,97,0.00,,---,0.00,VWS V14.01,2013-04-24 22:38:00,
2013-04-24 18:43:00,49.1,48.3,29.89,SSW,200,21.0,23.0,97,0.00,,---,0.00,VWS V14.01,2013-04-24 22:43:00,
2013-04-24 18:48:00,49.2,48.4,29.89,East,90,18.0,23.0,97,0.00,,---,0.00,VWS V14.01,2013-04-24 22:48:00,
2013-04-24 18:53:00,49.2,48.4,29.89,NNE,12,10.0,23.0,97,0.00,,---,0.00,VWS V14.01,2013-04-24 22:53:00,
2013-04-24 18:58:00,49.1,48.3,29.89,SW,228,10.0,24.0,97,0.00,,---,0.00,VWS V14.01,2013-04-24 22:58:00,
2013-04-24 19:03:00,49.1,48.3,29.89,West,276,18.0,23.0,97,0.00,,---,0.00,VWS V14.01,2013-04-24 23:03:00,
2013-04-24 19:08:00,49.1,48.3,29.89,South,191,19.0,23.0,97,0.00,,---,0.00,VWS V14.01,2013-04-24 23:08:00,
2013-04-24 19:13:00,49.2,48.7,29.89,SW,230,18.0,23.0,98,0.00,,---,0.00,VWS V14.01,2013-04-24 23:13:00,
2013-04-24 19:18:00,49.3,48.8,29.89,SE,127,13.0,23.0,98,0.00,,---,0.00,VWS V14.01,2013-04-24 23:18:00,
2013-04-24 19:23:00,49.2,48.7,29.89,South,174,13.0,23.0,98,0.00,,---,0.00,VWS V14.01,2013-04-24 23:23:00,
2013-04-24 19:28:00,49.2,48.7,29.89,South,184,16.0,23.0,98,0.00,,---,0.00,VWS V14.01,2013-04-24 23:28:00,
2013-04-24 19:33:00,49.3,48.8,29.89,SSW,209,15.0,20.0,98,0.00,,---,0.00,VWS V14.01,2013-04-24 23:33:00,
2013-04-24 19:38:00,49.3,48.8,29.89,SW,236,13.0,23.0,98,0.00,,---,0.00,VWS V14.01,2013-04-24 23:38:00,
2013-04-24 19:43:00,49.3,48.8,29.88,WSW,238,8.0,23.0,98,0.00,,---,0.00,VWS V14.01,2013-04-24 23:43:00,
2013-04-24 19:48:00,49.3,48.8,29.88,WSW,246,10.0,23.0,98,0.00,,---,0.00,VWS V14.01,2013-04-24 23:48:00,
2013-04-24 19:53:00,49.3,48.8,29.88,NW,307,9.0,23.0,98,0.00,,---,0.00,VWS V14.01,2013-04-24 23:53:00,
2013-04-24 19:58:00,49.3,48.8,29.88,SSW,192,8.0,23.0,98,0.00,,---,0.00,VWS V14.01,2013-04-24 23:58:00,
2013-04-24 20:03:00,49.3,48.8,29.88,SE,131,12.0,17.0,98,0.00,,---,0.00,VWS V14.01,2013-04-25 00:03:00,
2013-04-24 20:09:00,49.3,48.8,29.88,SE,130,8.0,17.0,98,0.00,,---,0.00,VWS V14.01,2013-04-25 00:09:00,
2013-04-24 20:14:00,49.3,48.5,29.88,NNW,330,10.0,17.0,97,0.00,,---,0.00,VWS V14.01,2013-04-25 00:14:00,
2013-04-24 20:19:00,49.3,48.5,29.88,South,173,6.0,17.0,97,0.00,,---,0.00,VWS V14.01,2013-04-25 00:19:00,
2013-04-24 20:24:00,49.3,48.5,29.88,South,171,5.0,17.0,97,0.00,,---,0.00,VWS V14.01,2013-04-25 00:24:00,
2013-04-24 20:29:00,49.4,48.6,29.87,ENE,58,13.0,17.0,97,0.00,,---,0.00,VWS V14.01,2013-04-25 00:29:00,
2013-04-24 20:34:00,49.4,48.6,29.88,NNW,338,7.0,15.0,97,0.00,,---,0.00,VWS V14.01,2013-04-25 00:34:00,
2013-04-24 20:39:00,49.4,48.6,29.88,WSW,255,8.0,15.0,97,0.00,,---,0.00,VWS V14.01,2013-04-25 00:39:00,
2013-04-24 20:44:00,49.5,48.7,29.88,SW,229,6.0,15.0,97,0.00,,---,0.00,VWS V14.01,2013-04-25 00:44:00,
2013-04-24 20:49:00,49.5,48.7,29.89,SSW,198,12.0,15.0,97,0.00,,---,0.00,VWS V14.01,2013-04-25 00:49:00,
2013-04-24 20:54:00,49.7,48.9,29.89,SSW,205,11.0,20.0,97,0.00,,---,0.00,VWS V14.01,2013-04-25 00:54:00,
2013-04-24 20:59:00,49.8,49.0,29.89,ESE,115,9.0,20.0,97,0.00,,---,0.00,VWS V14.01,2013-04-25 00:59:00,
2013-04-24 21:04:00,49.9,49.1,29.89,NNE,21,15.0,15.0,97,0.00,,---,0.00,VWS V14.01,2013-04-25 01:04:00,
2013-04-24 21:09:00,49.9,48.8,29.90,SE,136,12.0,17.0,96,0.00,,---,0.00,VWS V14.01,2013-04-25 01:09:00,
2013-04-24 21:14:00,49.9,48.8,29.90,West,269,11.0,17.0,96,0.00,,---,0.00,VWS V14.01,2013-04-25 01:14:00,
2013-04-24 21:24:00,50.1,49.0,29.90,South,174,9.0,18.0,96,0.00,,---,0.00,VWS V14.01,2013-04-25 01:24:00,
2013-04-24 21:29:00,50.1,49.0,29.91,NE,48,13.0,18.0,96,0.00,,---,0.00,VWS V14.01,2013-04-25 01:29:00,
2013-04-24 21:34:00,50.3,49.2,29.91,South,176,9.0,17.0,96,0.00,,---,0.00,VWS V14.01,2013-04-25 01:34:00,
2013-04-24 21:39:00,50.3,49.2,29.92,SSE,148,8.0,19.0,96,0.00,,---,0.00,VWS V14.01,2013-04-25 01:39:00,
2013-04-24 21:44:00,50.4,49.3,29.92,NW,326,14.0,19.0,96,0.00,,---,0.00,VWS V14.01,2013-04-25 01:44:00,
2013-04-24 21:49:00,50.5,49.1,29.92,SSW,198,8.0,19.0,95,0.00,,---,0.00,VWS V14.01,2013-04-25 01:49:00,
2013-04-24 21:54:00,50.5,49.1,29.92,SSW,193,11.0,19.0,95,0.00,,---,0.00,VWS V14.01,2013-04-25 01:54:00,
2013-04-24 21:59:00,50.6,49.2,29.92,NW,323,10.0,19.0,95,0.00,,---,0.00,VWS V14.01,2013-04-25 01:59:00,
2013-04-24 22:05:00,50.6,49.2,29.92,SW,234,8.0,14.0,95,0.00,,---,0.00,VWS V14.01,2013-04-25 02:05:00,
2013-04-24 22:10:00,50.5,49.1,29.92,SE,134,8.0,14.0,95,0.00,,---,0.00,VWS V14.01,2013-04-25 02:10:00,
2013-04-24 22:15:00,50.5,49.1,29.92,SW,232,4.0,14.0,95,0.00,,---,0.00,VWS V14.01,2013-04-25 02:15:00,
2013-04-24 22:20:00,50.4,49.0,29.92,SSE,153,9.0,14.0,95,0.00,,---,0.00,VWS V14.01,2013-04-25 02:20:00,
2013-04-24 22:25:00,50.5,49.1,29.92,South,180,7.0,14.0,95,0.00,,---,0.00,VWS V14.01,2013-04-25 02:25:00,
2013-04-24 22:30:00,50.5,49.1,29.92,East,85,9.0,14.0,95,0.00,,---,0.00,VWS V14.01,2013-04-25 02:30:00,
2013-04-24 22:35:00,50.6,49.2,29.91,SE,141,7.0,12.0,95,0.00,,---,0.00,VWS V14.01,2013-04-25 02:35:00,
2013-04-24 22:40:00,50.6,49.2,29.92,SE,141,4.0,13.0,95,0.00,,---,0.00,VWS V14.01,2013-04-25 02:40:00,
2013-04-24 22:45:00,50.6,49.2,29.91,WSW,257,7.0,14.0,95,0.00,,---,0.00,VWS V14.01,2013-04-25 02:45:00,
2013-04-24 22:50:00,50.6,49.2,29.91,SW,223,5.0,14.0,95,0.00,,---,0.00,VWS V14.01,2013-04-25 02:50:00,
2013-04-24 22:55:00,50.6,49.2,29.91,NNE,22,7.0,16.0,95,0.00,,---,0.00,VWS V14.01,2013-04-25 02:55:00,
2013-04-24 23:00:00,50.6,49.2,29.91,South,181,7.0,7.0,95,0.00,,---,0.00,VWS V14.01,2013-04-25 03:00:00,
2013-04-24 23:05:00,50.6,49.2,29.91,NW,311,8.0,15.0,95,0.00,,---,0.00,VWS V14.01,2013-04-25 03:05:00,
2013-04-24 23:10:00,50.7,49.3,29.91,South,169,10.0,17.0,95,0.00,,---,0.00,VWS V14.01,2013-04-25 03:10:00,
2013-04-24 23:15:00,50.8,49.4,29.91,NNE,33,9.0,18.0,95,0.00,,---,0.00,VWS V14.01,2013-04-25 03:15:00,
2013-04-24 23:20:00,51.0,49.6,29.91,WNW,284,10.0,19.0,95,0.00,,---,0.00,VWS V14.01,2013-04-25 03:20:00,
2013-04-24 23:25:00,51.1,49.7,29.90,SSW,212,9.0,19.0,95,0.00,,---,0.00,VWS V14.01,2013-04-25 03:25:00,
2013-04-24 23:30:00,51.2,49.8,29.90,SSW,211,12.0,12.0,95,0.00,,---,0.00,VWS V14.01,2013-04-25 03:30:00,
2013-04-24 23:35:00,51.3,49.9,29.90,NNW,341,6.0,15.0,95,0.00,,---,0.00,VWS V14.01,2013-04-25 03:35:00,
2013-04-24 23:40:00,51.3,49.9,29.90,SSW,212,5.0,16.0,95,0.00,,---,0.00,VWS V14.01,2013-04-25 03:40:00,
2013-04-24 23:45:00,51.4,50.0,29.90,NNE,27,10.0,16.0,95,0.00,,---,0.00,VWS V14.01,2013-04-25 03:45:00,
2013-04-24 23:50:00,51.5,50.1,29.90,South,181,10.0,17.0,95,0.00,,---,0.00,VWS V14.01,2013-04-25 03:50:00,
2013-04-24 23:55:00,51.6,50.2,29.89,SSW,206,14.0,18.0,95,0.00,,---,0.00,VWS V14.01,2013-04-25 03:55:00,